sensor_id;sensor_type;location;lat;lon;timestamp;temperature;humidity
25440;DHT22;13365;52.208;5.488;2022-09-30T00:00:25;12.80;86.80
25440;DHT22;13365;52.208;5.488;2022-09-30T00:02:51;12.80;86.60
25440;DHT22;13365;52.208;5.488;2022-09-30T00:05:17;12.90;86.40
25440;DHT22;13365;52.208;5.488;2022-09-30T00:07:42;12.90;86.20
25440;DHT22;13365;52.208;5.488;2022-09-30T00:10:08;13.00;86.20
25440;DHT22;13365;52.208;5.488;2022-09-30T00:12:34;12.80;85.90
25440;DHT22;13365;52.208;5.488;2022-09-30T00:14:59;12.80;85.90
25440;DHT22;13365;52.208;5.488;2022-09-30T00:17:26;12.80;85.60
25440;DHT22;13365;52.208;5.488;2022-09-30T00:19:52;12.70;85.70
25440;DHT22;13365;52.208;5.488;2022-09-30T00:22:18;12.60;86.00
25440;DHT22;13365;52.208;5.488;2022-09-30T00:24:43;12.60;86.40
25440;DHT22;13365;52.208;5.488;2022-09-30T00:27:10;12.40;86.40
25440;DHT22;13365;52.208;5.488;2022-09-30T00:29:36;12.40;86.70
25440;DHT22;13365;52.208;5.488;2022-09-30T00:32:02;12.40;86.80
25440;DHT22;13365;52.208;5.488;2022-09-30T00:34:27;12.50;86.60
25440;DHT22;13365;52.208;5.488;2022-09-30T00:36:53;12.40;86.60
25440;DHT22;13365;52.208;5.488;2022-09-30T00:39:25;12.50;86.60
25440;DHT22;13365;52.208;5.488;2022-09-30T00:41:59;12.40;86.30
25440;DHT22;13365;52.208;5.488;2022-09-30T00:44:45;12.30;86.60
25440;DHT22;13365;52.208;5.488;2022-09-30T00:53:27;12.40;86.80
25440;DHT22;13365;52.208;5.488;2022-09-30T00:56:00;12.50;86.70
25440;DHT22;13365;52.208;5.488;2022-09-30T00:58:42;12.50;86.80
25440;DHT22;13365;52.208;5.488;2022-09-30T01:01:10;12.50;87.00
25440;DHT22;13365;52.208;5.488;2022-09-30T01:03:39;12.50;87.20
25440;DHT22;13365;52.208;5.488;2022-09-30T01:06:06;12.30;87.00
25440;DHT22;13365;52.208;5.488;2022-09-30T01:08:36;12.20;87.20
25440;DHT22;13365;52.208;5.488;2022-09-30T01:11:02;12.20;87.20
25440;DHT22;13365;52.208;5.488;2022-09-30T01:13:29;12.30;87.20
25440;DHT22;13365;52.208;5.488;2022-09-30T01:19:14;12.40;86.70
25440;DHT22;13365;52.208;5.488;2022-09-30T01:36:24;12.00;86.70
25440;DHT22;13365;52.208;5.488;2022-09-30T01:41:52;12.20;86.90
25440;DHT22;13365;52.208;5.488;2022-09-30T01:47:24;12.20;86.80
25440;DHT22;13365;52.208;5.488;2022-09-30T01:49:59;12.10;86.70
25440;DHT22;13365;52.208;5.488;2022-09-30T01:53:07;12.20;87.70
25440;DHT22;13365;52.208;5.488;2022-09-30T02:00:48;12.20;87.40
25440;DHT22;13365;52.208;5.488;2022-09-30T02:03:19;12.20;87.30
25440;DHT22;13365;52.208;5.488;2022-09-30T02:05:58;12.30;87.30
25440;DHT22;13365;52.208;5.488;2022-09-30T02:08:50;12.40;87.40
25440;DHT22;13365;52.208;5.488;2022-09-30T02:13:53;12.40;87.20
25440;DHT22;13365;52.208;5.488;2022-09-30T02:16:23;12.30;87.50
25440;DHT22;13365;52.208;5.488;2022-09-30T02:19:00;12.40;87.90
25440;DHT22;13365;52.208;5.488;2022-09-30T02:21:32;12.30;88.00
25440;DHT22;13365;52.208;5.488;2022-09-30T02:24:02;12.40;87.80
25440;DHT22;13365;52.208;5.488;2022-09-30T02:26:34;12.60;87.50
25440;DHT22;13365;52.208;5.488;2022-09-30T02:31:33;12.50;87.00
25440;DHT22;13365;52.208;5.488;2022-09-30T02:37:04;12.60;86.90
25440;DHT22;13365;52.208;5.488;2022-09-30T02:39:50;12.60;86.80
25440;DHT22;13365;52.208;5.488;2022-09-30T02:42:23;12.50;86.70
25440;DHT22;13365;52.208;5.488;2022-09-30T02:44:55;12.40;86.80
25440;DHT22;13365;52.208;5.488;2022-09-30T02:58:25;12.30;87.20
25440;DHT22;13365;52.208;5.488;2022-09-30T03:00:52;12.40;87.10
25440;DHT22;13365;52.208;5.488;2022-09-30T03:03:29;12.30;87.10
25440;DHT22;13365;52.208;5.488;2022-09-30T03:05:56;12.40;87.10
25440;DHT22;13365;52.208;5.488;2022-09-30T03:08:22;12.40;87.00
25440;DHT22;13365;52.208;5.488;2022-09-30T03:10:50;12.30;87.20
25440;DHT22;13365;52.208;5.488;2022-09-30T03:13:31;12.30;87.30
25440;DHT22;13365;52.208;5.488;2022-09-30T03:16:20;12.30;87.20
25440;DHT22;13365;52.208;5.488;2022-09-30T03:21:59;12.40;86.70
25440;DHT22;13365;52.208;5.488;2022-09-30T03:30:23;12.00;87.00
25440;DHT22;13365;52.208;5.488;2022-09-30T03:33:20;12.00;86.90
25440;DHT22;13365;52.208;5.488;2022-09-30T03:36:04;11.80;86.80
25440;DHT22;13365;52.208;5.488;2022-09-30T03:39:00;12.00;87.20
25440;DHT22;13365;52.208;5.488;2022-09-30T03:44:19;12.00;86.90
25440;DHT22;13365;52.208;5.488;2022-09-30T03:46:56;12.00;87.10
25440;DHT22;13365;52.208;5.488;2022-09-30T03:49:29;12.00;87.10
25440;DHT22;13365;52.208;5.488;2022-09-30T03:51:57;12.00;86.80
25440;DHT22;13365;52.208;5.488;2022-09-30T03:54:24;12.00;86.60
25440;DHT22;13365;52.208;5.488;2022-09-30T03:56:49;12.00;86.70
25440;DHT22;13365;52.208;5.488;2022-09-30T03:59:25;12.00;86.70
25440;DHT22;13365;52.208;5.488;2022-09-30T04:01:53;12.10;86.40
25440;DHT22;13365;52.208;5.488;2022-09-30T04:04:20;12.00;86.50
25440;DHT22;13365;52.208;5.488;2022-09-30T04:06:45;12.10;86.90
25440;DHT22;13365;52.208;5.488;2022-09-30T04:09:11;12.00;86.50
25440;DHT22;13365;52.208;5.488;2022-09-30T04:11:37;12.00;86.70
25440;DHT22;13365;52.208;5.488;2022-09-30T04:14:02;12.00;86.60
25440;DHT22;13365;52.208;5.488;2022-09-30T04:16:28;11.90;86.50
25440;DHT22;13365;52.208;5.488;2022-09-30T04:18:54;11.90;86.50
25440;DHT22;13365;52.208;5.488;2022-09-30T04:21:21;11.90;86.30
25440;DHT22;13365;52.208;5.488;2022-09-30T04:23:47;11.70;86.50
25440;DHT22;13365;52.208;5.488;2022-09-30T04:26:14;11.70;86.70
25440;DHT22;13365;52.208;5.488;2022-09-30T04:28:41;11.70;86.80
25440;DHT22;13365;52.208;5.488;2022-09-30T04:31:07;11.70;86.80
25440;DHT22;13365;52.208;5.488;2022-09-30T04:33:34;11.70;86.50
25440;DHT22;13365;52.208;5.488;2022-09-30T04:35:59;11.70;86.40
25440;DHT22;13365;52.208;5.488;2022-09-30T04:38:25;11.70;86.50
25440;DHT22;13365;52.208;5.488;2022-09-30T04:40:51;11.70;86.40
25440;DHT22;13365;52.208;5.488;2022-09-30T04:43:19;11.70;86.40
25440;DHT22;13365;52.208;5.488;2022-09-30T04:45:47;11.80;86.40
25440;DHT22;13365;52.208;5.488;2022-09-30T04:48:14;11.70;86.20
25440;DHT22;13365;52.208;5.488;2022-09-30T04:50:41;11.70;86.40
25440;DHT22;13365;52.208;5.488;2022-09-30T04:53:07;11.70;86.40
25440;DHT22;13365;52.208;5.488;2022-09-30T04:55:33;11.70;86.30
25440;DHT22;13365;52.208;5.488;2022-09-30T04:57:58;11.70;86.00
25440;DHT22;13365;52.208;5.488;2022-09-30T05:00:24;11.50;86.30
25440;DHT22;13365;52.208;5.488;2022-09-30T05:02:50;11.60;86.60
25440;DHT22;13365;52.208;5.488;2022-09-30T05:05:16;11.70;86.40
25440;DHT22;13365;52.208;5.488;2022-09-30T05:07:42;11.70;86.10
25440;DHT22;13365;52.208;5.488;2022-09-30T05:10:08;11.60;86.20
25440;DHT22;13365;52.208;5.488;2022-09-30T05:12:35;11.60;86.10
25440;DHT22;13365;52.208;5.488;2022-09-30T05:15:02;11.60;86.30
25440;DHT22;13365;52.208;5.488;2022-09-30T05:17:29;11.70;86.40
25440;DHT22;13365;52.208;5.488;2022-09-30T05:19:55;11.60;86.20
25440;DHT22;13365;52.208;5.488;2022-09-30T05:22:21;11.70;86.20
25440;DHT22;13365;52.208;5.488;2022-09-30T05:24:49;11.60;86.10
25440;DHT22;13365;52.208;5.488;2022-09-30T05:27:14;11.40;86.20
25440;DHT22;13365;52.208;5.488;2022-09-30T05:29:40;11.40;86.60
25440;DHT22;13365;52.208;5.488;2022-09-30T05:32:06;11.50;86.80
25440;DHT22;13365;52.208;5.488;2022-09-30T05:34:32;11.60;86.60
25440;DHT22;13365;52.208;5.488;2022-09-30T05:36:57;11.60;86.40
25440;DHT22;13365;52.208;5.488;2022-09-30T05:39:23;11.50;86.20
25440;DHT22;13365;52.208;5.488;2022-09-30T05:41:48;11.40;86.40
25440;DHT22;13365;52.208;5.488;2022-09-30T05:44:14;11.40;86.50
25440;DHT22;13365;52.208;5.488;2022-09-30T05:46:39;11.50;86.60
25440;DHT22;13365;52.208;5.488;2022-09-30T05:49:07;11.50;86.60
25440;DHT22;13365;52.208;5.488;2022-09-30T05:51:32;11.50;86.40
25440;DHT22;13365;52.208;5.488;2022-09-30T05:53:58;11.50;86.80
25440;DHT22;13365;52.208;5.488;2022-09-30T05:56:23;11.40;87.00
25440;DHT22;13365;52.208;5.488;2022-09-30T05:58:49;11.40;87.10
25440;DHT22;13365;52.208;5.488;2022-09-30T06:01:15;11.30;87.20
25440;DHT22;13365;52.208;5.488;2022-09-30T06:03:45;11.30;87.90
25440;DHT22;13365;52.208;5.488;2022-09-30T06:06:11;11.50;87.70
25440;DHT22;13365;52.208;5.488;2022-09-30T06:08:38;11.50;87.70
25440;DHT22;13365;52.208;5.488;2022-09-30T06:11:16;11.40;87.90
25440;DHT22;13365;52.208;5.488;2022-09-30T06:13:43;11.50;87.90
25440;DHT22;13365;52.208;5.488;2022-09-30T06:16:11;11.60;88.30
25440;DHT22;13365;52.208;5.488;2022-09-30T06:18:37;11.50;88.10
25440;DHT22;13365;52.208;5.488;2022-09-30T06:21:06;11.60;88.20
25440;DHT22;13365;52.208;5.488;2022-09-30T06:23:33;11.60;88.20
25440;DHT22;13365;52.208;5.488;2022-09-30T06:26:00;11.70;88.10
25440;DHT22;13365;52.208;5.488;2022-09-30T06:28:25;11.70;88.20
25440;DHT22;13365;52.208;5.488;2022-09-30T06:30:51;11.70;88.30
25440;DHT22;13365;52.208;5.488;2022-09-30T06:33:18;11.80;88.60
25440;DHT22;13365;52.208;5.488;2022-09-30T06:35:44;11.90;88.80
25440;DHT22;13365;52.208;5.488;2022-09-30T06:38:12;12.00;89.10
25440;DHT22;13365;52.208;5.488;2022-09-30T06:40:40;12.20;89.20
25440;DHT22;13365;52.208;5.488;2022-09-30T06:43:06;12.30;89.70
25440;DHT22;13365;52.208;5.488;2022-09-30T06:45:31;12.30;90.00
25440;DHT22;13365;52.208;5.488;2022-09-30T06:48:01;12.40;90.30
25440;DHT22;13365;52.208;5.488;2022-09-30T06:50:28;12.40;90.50
25440;DHT22;13365;52.208;5.488;2022-09-30T06:52:58;12.40;90.90
25440;DHT22;13365;52.208;5.488;2022-09-30T06:55:25;12.50;91.10
25440;DHT22;13365;52.208;5.488;2022-09-30T06:57:52;12.60;91.10
25440;DHT22;13365;52.208;5.488;2022-09-30T07:00:19;12.70;91.30
25440;DHT22;13365;52.208;5.488;2022-09-30T07:02:44;12.80;91.40
25440;DHT22;13365;52.208;5.488;2022-09-30T07:05:10;12.90;91.40
25440;DHT22;13365;52.208;5.488;2022-09-30T07:07:35;13.00;91.40
25440;DHT22;13365;52.208;5.488;2022-09-30T07:10:02;13.10;91.70
25440;DHT22;13365;52.208;5.488;2022-09-30T07:12:28;13.30;91.60
25440;DHT22;13365;52.208;5.488;2022-09-30T07:14:53;13.40;91.60
25440;DHT22;13365;52.208;5.488;2022-09-30T07:17:20;13.50;92.10
25440;DHT22;13365;52.208;5.488;2022-09-30T07:19:46;13.60;91.90
25440;DHT22;13365;52.208;5.488;2022-09-30T07:22:12;13.80;92.00
25440;DHT22;13365;52.208;5.488;2022-09-30T07:25:01;13.70;92.20
25440;DHT22;13365;52.208;5.488;2022-09-30T07:27:32;13.80;92.70
25440;DHT22;13365;52.208;5.488;2022-09-30T07:29:58;13.90;93.00
25440;DHT22;13365;52.208;5.488;2022-09-30T07:32:24;13.80;93.30
25440;DHT22;13365;52.208;5.488;2022-09-30T07:34:50;13.90;93.90
25440;DHT22;13365;52.208;5.488;2022-09-30T07:37:17;14.10;94.20
25440;DHT22;13365;52.208;5.488;2022-09-30T07:39:45;14.40;94.00
25440;DHT22;13365;52.208;5.488;2022-09-30T07:42:13;14.50;94.00
25440;DHT22;13365;52.208;5.488;2022-09-30T07:44:39;14.70;94.10
25440;DHT22;13365;52.208;5.488;2022-09-30T07:47:09;14.90;94.00
25440;DHT22;13365;52.208;5.488;2022-09-30T07:49:36;14.90;94.00
25440;DHT22;13365;52.208;5.488;2022-09-30T07:52:01;15.10;94.10
25440;DHT22;13365;52.208;5.488;2022-09-30T07:54:29;15.50;93.80
25440;DHT22;13365;52.208;5.488;2022-09-30T07:56:56;15.60;93.40
25440;DHT22;13365;52.208;5.488;2022-09-30T07:59:21;15.70;93.10
25440;DHT22;13365;52.208;5.488;2022-09-30T08:01:47;15.90;93.10
25440;DHT22;13365;52.208;5.488;2022-09-30T08:04:15;16.00;93.10
25440;DHT22;13365;52.208;5.488;2022-09-30T08:06:44;16.20;92.60
25440;DHT22;13365;52.208;5.488;2022-09-30T08:09:11;16.30;92.60
25440;DHT22;13365;52.208;5.488;2022-09-30T08:11:37;16.50;92.50
25440;DHT22;13365;52.208;5.488;2022-09-30T08:14:04;16.70;92.30
25440;DHT22;13365;52.208;5.488;2022-09-30T08:16:30;16.90;92.10
25440;DHT22;13365;52.208;5.488;2022-09-30T08:18:57;17.10;92.10
25440;DHT22;13365;52.208;5.488;2022-09-30T08:21:22;17.20;91.70
25440;DHT22;13365;52.208;5.488;2022-09-30T08:23:48;17.30;91.70
25440;DHT22;13365;52.208;5.488;2022-09-30T08:26:15;17.40;91.80
25440;DHT22;13365;52.208;5.488;2022-09-30T08:28:41;17.60;91.70
25440;DHT22;13365;52.208;5.488;2022-09-30T08:31:16;17.70;91.50
25440;DHT22;13365;52.208;5.488;2022-09-30T08:33:42;18.00;91.30
25440;DHT22;13365;52.208;5.488;2022-09-30T08:36:26;18.20;91.10
25440;DHT22;13365;52.208;5.488;2022-09-30T08:38:52;18.40;90.60
25440;DHT22;13365;52.208;5.488;2022-09-30T08:44:13;18.90;90.10
25440;DHT22;13365;52.208;5.488;2022-09-30T08:47:07;19.10;90.20
25440;DHT22;13365;52.208;5.488;2022-09-30T08:49:48;19.20;89.80
25440;DHT22;13365;52.208;5.488;2022-09-30T08:52:33;19.50;89.10
25440;DHT22;13365;52.208;5.488;2022-09-30T08:55:00;19.80;87.20
25440;DHT22;13365;52.208;5.488;2022-09-30T08:57:35;19.80;87.60
25440;DHT22;13365;52.208;5.488;2022-09-30T09:00:03;19.90;88.60
25440;DHT22;13365;52.208;5.488;2022-09-30T09:02:37;20.20;86.60
25440;DHT22;13365;52.208;5.488;2022-09-30T09:05:05;20.40;86.60
25440;DHT22;13365;52.208;5.488;2022-09-30T09:10:18;21.00;86.10
25440;DHT22;13365;52.208;5.488;2022-09-30T09:13:09;21.10;84.30
25440;DHT22;13365;52.208;5.488;2022-09-30T09:18:47;21.50;83.50
25440;DHT22;13365;52.208;5.488;2022-09-30T09:24:17;21.60;82.20
25440;DHT22;13365;52.208;5.488;2022-09-30T09:26:43;21.70;81.90
25440;DHT22;13365;52.208;5.488;2022-09-30T09:31:39;21.80;80.60
25440;DHT22;13365;52.208;5.488;2022-09-30T09:34:11;21.70;81.20
25440;DHT22;13365;52.208;5.488;2022-09-30T09:40:05;21.90;81.10
25440;DHT22;13365;52.208;5.488;2022-09-30T09:42:52;22.00;81.40
25440;DHT22;13365;52.208;5.488;2022-09-30T09:45:49;22.10;79.80
25440;DHT22;13365;52.208;5.488;2022-09-30T09:48:16;22.20;78.40
25440;DHT22;13365;52.208;5.488;2022-09-30T09:51:11;22.00;79.00
25440;DHT22;13365;52.208;5.488;2022-09-30T09:53:51;22.10;80.20
25440;DHT22;13365;52.208;5.488;2022-09-30T09:56:20;22.20;78.30
25440;DHT22;13365;52.208;5.488;2022-09-30T10:01:40;22.20;79.00
25440;DHT22;13365;52.208;5.488;2022-09-30T10:06:49;22.20;79.20
25440;DHT22;13365;52.208;5.488;2022-09-30T10:09:32;22.10;80.20
25440;DHT22;13365;52.208;5.488;2022-09-30T10:14:34;22.10;78.90
25440;DHT22;13365;52.208;5.488;2022-09-30T10:17:04;22.20;78.50
25440;DHT22;13365;52.208;5.488;2022-09-30T10:19:33;22.20;78.90
25440;DHT22;13365;52.208;5.488;2022-09-30T10:24:36;22.60;76.40
25440;DHT22;13365;52.208;5.488;2022-09-30T10:27:02;22.40;77.20
25440;DHT22;13365;52.208;5.488;2022-09-30T10:29:30;22.60;79.50
25440;DHT22;13365;52.208;5.488;2022-09-30T10:32:01;22.70;76.10
25440;DHT22;13365;52.208;5.488;2022-09-30T10:34:31;22.40;76.20
25440;DHT22;13365;52.208;5.488;2022-09-30T10:37:06;22.40;75.30
25440;DHT22;13365;52.208;5.488;2022-09-30T10:39:37;22.40;76.50
25440;DHT22;13365;52.208;5.488;2022-09-30T10:45:19;22.40;78.10
25440;DHT22;13365;52.208;5.488;2022-09-30T10:47:29;22.40;76.60
25440;DHT22;13365;52.208;5.488;2022-09-30T10:50:13;22.60;77.20
25440;DHT22;13365;52.208;5.488;2022-09-30T10:52:54;22.80;76.30
25440;DHT22;13365;52.208;5.488;2022-09-30T10:57:49;23.00;75.80
25440;DHT22;13365;52.208;5.488;2022-09-30T11:00:20;23.00;75.60
25440;DHT22;13365;52.208;5.488;2022-09-30T11:05:38;23.00;76.20
25440;DHT22;13365;52.208;5.488;2022-09-30T11:08:28;22.90;75.70
25440;DHT22;13365;52.208;5.488;2022-09-30T11:11:14;22.90;74.50
25440;DHT22;13365;52.208;5.488;2022-09-30T11:14:01;22.90;74.20
25440;DHT22;13365;52.208;5.488;2022-09-30T11:16:55;22.80;74.00
25440;DHT22;13365;52.208;5.488;2022-09-30T11:20:30;22.80;73.70
25440;DHT22;13365;52.208;5.488;2022-09-30T11:25:22;22.60;75.90
25440;DHT22;13365;52.208;5.488;2022-09-30T11:27:56;22.40;73.30
25440;DHT22;13365;52.208;5.488;2022-09-30T11:30:44;22.30;75.30
25440;DHT22;13365;52.208;5.488;2022-09-30T11:38:32;22.30;75.40
25440;DHT22;13365;52.208;5.488;2022-09-30T11:41:30;22.50;74.30
25440;DHT22;13365;52.208;5.488;2022-09-30T11:52:15;22.40;76.30
25440;DHT22;13365;52.208;5.488;2022-09-30T11:55:06;22.70;73.20
25440;DHT22;13365;52.208;5.488;2022-09-30T12:00:17;22.60;72.10
25440;DHT22;13365;52.208;5.488;2022-09-30T12:02:47;22.30;72.10
25440;DHT22;13365;52.208;5.488;2022-09-30T12:05:28;22.10;72.80
25440;DHT22;13365;52.208;5.488;2022-09-30T12:08:02;22.10;73.50
25440;DHT22;13365;52.208;5.488;2022-09-30T12:10:33;22.30;74.50
25440;DHT22;13365;52.208;5.488;2022-09-30T12:13:16;22.30;70.90
25440;DHT22;13365;52.208;5.488;2022-09-30T12:15:43;22.20;71.80
25440;DHT22;13365;52.208;5.488;2022-09-30T12:18:24;22.30;72.50
25440;DHT22;13365;52.208;5.488;2022-09-30T12:21:00;22.20;71.90
25440;DHT22;13365;52.208;5.488;2022-09-30T12:23:48;22.30;74.20
25440;DHT22;13365;52.208;5.488;2022-09-30T12:26:17;22.10;72.30
25440;DHT22;13365;52.208;5.488;2022-09-30T12:28:55;22.00;73.50
25440;DHT22;13365;52.208;5.488;2022-09-30T12:32:27;21.90;76.30
25440;DHT22;13365;52.208;5.488;2022-09-30T12:46:13;22.10;75.90
25440;DHT22;13365;52.208;5.488;2022-09-30T12:48:47;22.30;75.90
25440;DHT22;13365;52.208;5.488;2022-09-30T12:51:31;22.40;74.10
25440;DHT22;13365;52.208;5.488;2022-09-30T12:54:24;22.30;72.10
25440;DHT22;13365;52.208;5.488;2022-09-30T12:56:59;22.20;72.20
25440;DHT22;13365;52.208;5.488;2022-09-30T12:59:31;22.40;72.10
25440;DHT22;13365;52.208;5.488;2022-09-30T13:01:59;22.40;70.90
25440;DHT22;13365;52.208;5.488;2022-09-30T13:04:34;22.40;72.50
25440;DHT22;13365;52.208;5.488;2022-09-30T13:09:59;22.50;71.80
25440;DHT22;13365;52.208;5.488;2022-09-30T13:12:40;22.40;73.20
25440;DHT22;13365;52.208;5.488;2022-09-30T13:17:53;22.20;72.70
25440;DHT22;13365;52.208;5.488;2022-09-30T13:26:00;22.10;73.70
25440;DHT22;13365;52.208;5.488;2022-09-30T13:28:37;22.10;74.40
25440;DHT22;13365;52.208;5.488;2022-09-30T13:31:13;22.00;73.50
25440;DHT22;13365;52.208;5.488;2022-09-30T13:33:45;21.80;73.90
25440;DHT22;13365;52.208;5.488;2022-09-30T13:36:18;21.70;75.90
25440;DHT22;13365;52.208;5.488;2022-09-30T13:39:16;21.70;76.30
25440;DHT22;13365;52.208;5.488;2022-09-30T13:41:43;21.70;75.60
25440;DHT22;13365;52.208;5.488;2022-09-30T13:47:18;21.60;75.80
25440;DHT22;13365;52.208;5.488;2022-09-30T13:49:52;21.60;76.60
25440;DHT22;13365;52.208;5.488;2022-09-30T13:52:30;21.50;78.10
25440;DHT22;13365;52.208;5.488;2022-09-30T13:55:01;21.50;77.60
25440;DHT22;13365;52.208;5.488;2022-09-30T13:57:36;21.40;76.80
25440;DHT22;13365;52.208;5.488;2022-09-30T14:00:06;21.60;77.60
25440;DHT22;13365;52.208;5.488;2022-09-30T14:02:43;21.60;76.50
25440;DHT22;13365;52.208;5.488;2022-09-30T14:19:32;21.30;75.30
25440;DHT22;13365;52.208;5.488;2022-09-30T14:22:04;21.30;75.40
25440;DHT22;13365;52.208;5.488;2022-09-30T14:24:36;21.30;76.50
25440;DHT22;13365;52.208;5.488;2022-09-30T14:29:42;21.40;76.60
25440;DHT22;13365;52.208;5.488;2022-09-30T14:32:18;21.60;78.10
25440;DHT22;13365;52.208;5.488;2022-09-30T14:34:45;21.60;75.70
25440;DHT22;13365;52.208;5.488;2022-09-30T14:37:40;21.70;76.10
25440;DHT22;13365;52.208;5.488;2022-09-30T14:40:12;21.60;75.10
25440;DHT22;13365;52.208;5.488;2022-09-30T14:42:41;21.50;75.30
25440;DHT22;13365;52.208;5.488;2022-09-30T14:45:20;21.50;75.10
25440;DHT22;13365;52.208;5.488;2022-09-30T14:47:49;21.50;75.90
25440;DHT22;13365;52.208;5.488;2022-09-30T14:50:21;21.60;75.30
25440;DHT22;13365;52.208;5.488;2022-09-30T14:52:48;21.60;75.40
25440;DHT22;13365;52.208;5.488;2022-09-30T14:55:33;21.70;76.80
25440;DHT22;13365;52.208;5.488;2022-09-30T15:00:46;21.60;73.00
25440;DHT22;13365;52.208;5.488;2022-09-30T15:03:12;21.40;74.10
25440;DHT22;13365;52.208;5.488;2022-09-30T15:05:39;21.40;75.40
25440;DHT22;13365;52.208;5.488;2022-09-30T15:08:19;21.40;75.50
25440;DHT22;13365;52.208;5.488;2022-09-30T15:10:49;21.60;76.20
25440;DHT22;13365;52.208;5.488;2022-09-30T15:13:17;21.80;75.70
25440;DHT22;13365;52.208;5.488;2022-09-30T15:15:44;21.90;75.10
25440;DHT22;13365;52.208;5.488;2022-09-30T15:18:27;21.90;74.10
25440;DHT22;13365;52.208;5.488;2022-09-30T15:20:55;21.50;73.70
25440;DHT22;13365;52.208;5.488;2022-09-30T15:23:31;21.70;75.20
25440;DHT22;13365;52.208;5.488;2022-09-30T15:25:58;22.10;71.70
25440;DHT22;13365;52.208;5.488;2022-09-30T15:28:24;22.40;71.50
25440;DHT22;13365;52.208;5.488;2022-09-30T15:30:51;22.90;70.70
25440;DHT22;13365;52.208;5.488;2022-09-30T15:33:21;23.30;70.20
25440;DHT22;13365;52.208;5.488;2022-09-30T15:36:25;23.90;68.60
25440;DHT22;13365;52.208;5.488;2022-09-30T15:38:51;24.10;65.70
25440;DHT22;13365;52.208;5.488;2022-09-30T15:41:17;23.80;66.20
25440;DHT22;13365;52.208;5.488;2022-09-30T15:43:48;23.60;66.70
25440;DHT22;13365;52.208;5.488;2022-09-30T15:46:39;23.50;67.20
25440;DHT22;13365;52.208;5.488;2022-09-30T15:49:28;23.70;67.40
25440;DHT22;13365;52.208;5.488;2022-09-30T15:51:53;23.70;66.90
25440;DHT22;13365;52.208;5.488;2022-09-30T15:54:48;23.40;66.40
25440;DHT22;13365;52.208;5.488;2022-09-30T15:57:45;23.10;67.50
25440;DHT22;13365;52.208;5.488;2022-09-30T16:00:33;22.80;68.40
25440;DHT22;13365;52.208;5.488;2022-09-30T16:05:44;22.10;70.70
25440;DHT22;13365;52.208;5.488;2022-09-30T16:08:23;21.90;71.80
25440;DHT22;13365;52.208;5.488;2022-09-30T16:10:52;21.70;72.40
25440;DHT22;13365;52.208;5.488;2022-09-30T16:13:20;21.60;73.30
25440;DHT22;13365;52.208;5.488;2022-09-30T16:15:51;21.30;73.60
25440;DHT22;13365;52.208;5.488;2022-09-30T16:18:20;21.20;73.90
25440;DHT22;13365;52.208;5.488;2022-09-30T16:21:03;21.30;74.00
25440;DHT22;13365;52.208;5.488;2022-09-30T16:23:34;21.30;74.00
25440;DHT22;13365;52.208;5.488;2022-09-30T16:26:18;21.30;74.00
25440;DHT22;13365;52.208;5.488;2022-09-30T16:28:52;21.20;74.40
25440;DHT22;13365;52.208;5.488;2022-09-30T16:31:19;21.10;74.70
25440;DHT22;13365;52.208;5.488;2022-09-30T16:33:45;20.90;75.60
25440;DHT22;13365;52.208;5.488;2022-09-30T16:36:11;20.90;76.10
25440;DHT22;13365;52.208;5.488;2022-09-30T16:38:37;20.80;76.50
25440;DHT22;13365;52.208;5.488;2022-09-30T16:41:03;20.90;76.40
25440;DHT22;13365;52.208;5.488;2022-09-30T16:43:29;20.90;76.30
25440;DHT22;13365;52.208;5.488;2022-09-30T16:45:57;20.80;75.70
25440;DHT22;13365;52.208;5.488;2022-09-30T16:48:25;20.90;76.00
25440;DHT22;13365;52.208;5.488;2022-09-30T16:51:11;20.80;76.10
25440;DHT22;13365;52.208;5.488;2022-09-30T16:53:38;20.70;75.90
25440;DHT22;13365;52.208;5.488;2022-09-30T16:56:04;20.70;76.20
25440;DHT22;13365;52.208;5.488;2022-09-30T16:58:30;20.50;76.40
25440;DHT22;13365;52.208;5.488;2022-09-30T17:00:56;20.40;76.60
25440;DHT22;13365;52.208;5.488;2022-09-30T17:03:25;20.40;76.50
25440;DHT22;13365;52.208;5.488;2022-09-30T17:05:51;20.30;76.60
25440;DHT22;13365;52.208;5.488;2022-09-30T17:08:18;20.10;77.00
25440;DHT22;13365;52.208;5.488;2022-09-30T17:10:45;20.10;77.20
25440;DHT22;13365;52.208;5.488;2022-09-30T17:13:12;20.00;77.30
25440;DHT22;13365;52.208;5.488;2022-09-30T17:15:41;20.00;77.40
25440;DHT22;13365;52.208;5.488;2022-09-30T17:18:08;19.90;77.40
25440;DHT22;13365;52.208;5.488;2022-09-30T17:20:36;19.90;77.50
25440;DHT22;13365;52.208;5.488;2022-09-30T17:23:02;19.80;77.80
25440;DHT22;13365;52.208;5.488;2022-09-30T17:25:28;19.70;78.00
25440;DHT22;13365;52.208;5.488;2022-09-30T17:27:53;19.60;78.20
25440;DHT22;13365;52.208;5.488;2022-09-30T17:30:19;19.60;78.20
25440;DHT22;13365;52.208;5.488;2022-09-30T17:32:46;19.50;78.10
25440;DHT22;13365;52.208;5.488;2022-09-30T17:35:11;19.50;78.30
25440;DHT22;13365;52.208;5.488;2022-09-30T17:37:37;19.50;78.50
25440;DHT22;13365;52.208;5.488;2022-09-30T17:40:04;19.50;78.40
25440;DHT22;13365;52.208;5.488;2022-09-30T17:42:50;19.40;78.60
25440;DHT22;13365;52.208;5.488;2022-09-30T17:45:35;19.30;79.10
25440;DHT22;13365;52.208;5.488;2022-09-30T17:48:02;19.20;79.50
25440;DHT22;13365;52.208;5.488;2022-09-30T17:50:27;19.10;79.40
25440;DHT22;13365;52.208;5.488;2022-09-30T17:52:53;19.00;79.80
25440;DHT22;13365;52.208;5.488;2022-09-30T17:55:19;19.00;79.80
25440;DHT22;13365;52.208;5.488;2022-09-30T17:57:44;19.10;79.90
25440;DHT22;13365;52.208;5.488;2022-09-30T18:00:10;19.00;79.90
25440;DHT22;13365;52.208;5.488;2022-09-30T18:02:37;19.00;79.90
25440;DHT22;13365;52.208;5.488;2022-09-30T18:05:06;18.90;80.00
25440;DHT22;13365;52.208;5.488;2022-09-30T18:07:32;18.80;80.20
25440;DHT22;13365;52.208;5.488;2022-09-30T18:09:57;18.80;80.00
25440;DHT22;13365;52.208;5.488;2022-09-30T18:12:23;18.80;80.00
25440;DHT22;13365;52.208;5.488;2022-09-30T18:14:48;18.70;80.20
25440;DHT22;13365;52.208;5.488;2022-09-30T18:17:14;18.40;80.70
25440;DHT22;13365;52.208;5.488;2022-09-30T18:19:40;18.40;81.10
25440;DHT22;13365;52.208;5.488;2022-09-30T18:22:05;18.40;80.90
25440;DHT22;13365;52.208;5.488;2022-09-30T18:24:31;18.50;81.20
25440;DHT22;13365;52.208;5.488;2022-09-30T18:27:15;18.40;81.10
25440;DHT22;13365;52.208;5.488;2022-09-30T18:29:41;18.30;81.40
25440;DHT22;13365;52.208;5.488;2022-09-30T18:32:07;18.40;81.30
25440;DHT22;13365;52.208;5.488;2022-09-30T18:34:33;18.30;81.10
25440;DHT22;13365;52.208;5.488;2022-09-30T18:36:58;18.40;81.30
25440;DHT22;13365;52.208;5.488;2022-09-30T18:39:30;18.30;81.40
25440;DHT22;13365;52.208;5.488;2022-09-30T18:41:55;18.30;81.50
25440;DHT22;13365;52.208;5.488;2022-09-30T18:44:21;18.20;81.80